createdAt,value
2018-11-26T00:02:08.417Z,30.47
2018-11-26T00:05:13.353Z,32.47
2018-11-26T00:08:18.207Z,32.00
2018-11-26T00:11:38.937Z,31.93
2018-11-26T00:14:43.917Z,36.42
2018-11-26T00:17:48.804Z,30.53
2018-11-26T00:20:53.932Z,31.07
2018-11-26T00:23:58.771Z,33.07
2018-11-26T00:27:03.634Z,33.33
2018-11-26T00:30:09.339Z,38.53
2018-11-26T00:33:14.231Z,31.57
2018-11-26T00:36:19.143Z,34.57
2018-11-26T00:39:24.012Z,34.07
2018-11-26T00:42:28.837Z,30.10
2018-11-26T00:45:33.862Z,29.97
2018-11-26T00:48:38.683Z,33.80
2018-11-26T00:51:43.596Z,34.03
2018-11-26T00:54:48.524Z,34.40
2018-11-26T00:57:53.382Z,36.70
2018-11-26T01:00:58.301Z,31.80
2018-11-26T01:04:03.362Z,34.60
2018-11-26T01:07:08.383Z,35.13
2018-11-26T01:10:13.213Z,33.07
2018-11-26T01:13:18.188Z,31.80
2018-11-26T01:16:23.017Z,31.30
2018-11-26T01:19:27.998Z,30.10
2018-11-26T01:22:32.960Z,29.53
2018-11-26T01:25:37.781Z,31.60
2018-11-26T01:28:42.654Z,36.03
2018-11-26T01:31:47.469Z,32.60
2018-11-26T01:34:52.361Z,31.75
2018-11-26T01:37:57.260Z,32.53
2018-11-26T01:41:02.311Z,33.30
2018-11-26T01:44:07.378Z,32.20
2018-11-26T01:47:12.268Z,33.05
2018-11-26T01:50:17.167Z,31.97
2018-11-26T01:53:22.086Z,32.57
2018-11-26T01:56:26.939Z,33.43
2018-11-26T01:59:31.791Z,31.97
2018-11-26T02:02:36.626Z,31.90
2018-11-26T02:05:41.679Z,31.07
2018-11-26T02:08:46.522Z,29.92
2018-11-26T02:11:51.364Z,32.03
2018-11-26T02:14:56.202Z,32.07
2018-11-26T02:18:02.038Z,31.30
2018-11-26T02:21:07.037Z,30.97
2018-11-26T02:24:12.083Z,32.20
2018-11-26T02:27:17.202Z,31.23
2018-11-26T02:30:22.041Z,31.90
2018-11-26T02:33:27.020Z,31.77
2018-11-26T02:36:32.018Z,32.90
2018-11-26T02:39:36.878Z,33.98
2018-11-26T02:42:41.710Z,33.07
2018-11-26T02:45:46.632Z,30.17
2018-11-26T02:48:51.605Z,32.93
2018-11-26T02:51:56.472Z,32.27
2018-11-26T02:55:01.997Z,31.60
2018-11-26T02:58:07.011Z,30.40
2018-11-26T03:01:11.879Z,29.70
2018-11-26T03:04:17.527Z,30.48
2018-11-26T03:07:22.766Z,34.10
2018-11-26T03:10:27.580Z,41.77
2018-11-26T03:13:32.478Z,53.50
2018-11-26T03:16:37.403Z,47.33
2018-11-26T03:19:42.381Z,54.20
2018-11-26T03:22:47.212Z,47.30
2018-11-26T03:25:52.061Z,46.33
2018-11-26T03:28:56.896Z,50.20
2018-11-26T03:32:02.220Z,43.47
2018-11-26T03:35:08.386Z,49.00
2018-11-26T03:38:16.214Z,56.77
2018-11-26T03:41:21.395Z,55.70
2018-11-26T03:44:26.277Z,49.80
2018-11-26T03:47:31.125Z,57.80
2018-11-26T03:50:35.995Z,47.27
2018-11-26T03:53:40.925Z,57.00
2018-11-26T03:56:45.750Z,46.67
2018-11-26T03:59:50.650Z,47.87
2018-11-26T04:02:55.526Z,50.20
2018-11-26T04:06:00.378Z,50.70
2018-11-26T04:09:07.183Z,46.37
2018-11-26T04:12:12.151Z,58.08
2018-11-26T04:15:17.295Z,53.10
2018-11-26T04:18:22.290Z,50.45
2018-11-26T04:21:27.175Z,50.92
2018-11-26T04:24:32.497Z,51.10
2018-11-26T04:27:37.382Z,44.65
2018-11-26T04:30:42.345Z,50.95
2018-11-26T04:33:47.231Z,48.27
2018-11-26T04:36:52.076Z,49.97
2018-11-26T04:39:56.948Z,48.17
2018-11-26T04:43:02.388Z,48.28
2018-11-26T04:46:07.211Z,49.30
2018-11-26T04:49:12.162Z,48.20
2018-11-26T04:52:17.085Z,46.43
2018-11-26T04:55:21.945Z,45.70
2018-11-26T04:58:26.848Z,49.47
2018-11-26T05:01:32.521Z,45.88
2018-11-26T05:04:37.597Z,46.80
2018-11-26T05:07:42.567Z,45.92
2018-11-26T05:10:47.416Z,45.28
2018-11-26T05:13:52.377Z,47.80
2018-11-26T05:16:57.197Z,47.67
2018-11-26T05:20:02.575Z,48.08
2018-11-26T05:23:07.448Z,49.30
2018-11-26T05:26:12.355Z,47.90
2018-11-26T05:29:17.237Z,49.47
2018-11-26T05:32:22.197Z,45.57
2018-11-26T05:35:27.091Z,44.60
2018-11-26T05:38:32.716Z,43.73
2018-11-26T05:41:37.720Z,40.93
2018-11-26T05:44:42.646Z,39.50
2018-11-26T05:47:47.532Z,40.43
2018-11-26T05:50:52.372Z,39.43
2018-11-26T05:53:57.264Z,39.23
2018-11-26T05:57:02.790Z,38.83
2018-11-26T06:00:17.360Z,38.80
2018-11-26T06:03:22.218Z,35.77
2018-11-26T06:06:27.125Z,38.60
2018-11-26T06:09:32.905Z,37.20
2018-11-26T06:12:37.749Z,36.07
2018-11-26T06:15:42.651Z,35.87
2018-11-26T06:18:47.492Z,34.97
2018-11-26T06:21:52.361Z,36.00
2018-11-26T06:24:57.240Z,34.60
2018-11-26T06:28:02.880Z,36.95
2018-11-26T06:31:08.156Z,33.70
2018-11-26T06:34:12.995Z,34.10
2018-11-26T06:37:17.875Z,35.03
2018-11-26T06:40:22.702Z,33.67
2018-11-26T06:43:27.621Z,32.73
2018-11-26T06:46:33.080Z,33.28
2018-11-26T06:49:38.016Z,32.38
2018-11-26T06:52:42.858Z,32.10
2018-11-26T06:55:47.751Z,32.83
2018-11-26T06:58:52.581Z,32.63
2018-11-26T07:01:57.466Z,34.90
2018-11-26T07:05:03.010Z,33.30
2018-11-26T07:08:07.969Z,33.60
2018-11-26T07:11:12.854Z,32.25
2018-11-26T07:14:17.756Z,30.95
2018-11-26T07:17:22.601Z,31.67
2018-11-26T07:20:27.544Z,29.63
2018-11-26T07:23:33.305Z,29.70
2018-11-26T07:26:38.159Z,30.75
2018-11-26T07:29:43.168Z,31.02
2018-11-26T07:32:48.014Z,29.92
2018-11-26T07:35:52.895Z,31.23
2018-11-26T07:38:57.717Z,29.80
2018-11-26T07:42:03.295Z,25.08
2018-11-26T07:45:11.541Z,27.27
2018-11-26T07:48:16.454Z,26.55
2018-11-26T07:51:21.336Z,27.50
2018-11-26T07:54:26.206Z,27.87
2018-11-26T07:57:31.040Z,29.27
2018-11-26T08:00:35.902Z,31.87
2018-11-26T08:03:40.921Z,30.00
2018-11-26T08:06:45.761Z,29.07
2018-11-26T08:09:50.615Z,28.38
2018-11-26T08:12:56.035Z,29.40
2018-11-26T08:16:00.860Z,29.87
2018-11-26T08:19:05.745Z,28.20
2018-11-26T08:22:10.670Z,28.67
2018-11-26T08:25:22.364Z,28.73
2018-11-26T08:28:27.247Z,27.70
2018-11-26T08:31:32.062Z,25.30
2018-11-26T08:34:36.965Z,23.80
2018-11-26T08:37:59.515Z,22.80
2018-11-26T08:41:19.956Z,25.27
2018-11-26T08:44:46.864Z,25.70
2018-11-26T08:48:02.009Z,25.73
2018-11-26T08:51:07.032Z,26.50
2018-11-26T08:54:11.926Z,26.57
2018-11-26T08:57:16.960Z,26.67
2018-11-26T09:00:21.837Z,25.37
2018-11-26T09:03:44.363Z,23.53
2018-11-26T09:06:49.630Z,23.87
2018-11-26T09:09:54.484Z,24.10
2018-11-26T09:12:59.526Z,26.70
2018-11-26T09:16:05.104Z,25.88
2018-11-26T09:19:09.961Z,25.70
2018-11-26T09:22:15.286Z,26.83
2018-11-26T09:25:20.104Z,26.20
2018-11-26T09:28:24.933Z,23.38
2018-11-26T09:31:29.839Z,24.97
2018-11-26T09:34:34.761Z,24.50
2018-11-26T09:37:39.595Z,26.63
2018-11-26T09:40:44.539Z,23.60
2018-11-26T09:43:49.366Z,23.70
2018-11-26T09:46:54.250Z,22.53
2018-11-26T09:49:59.207Z,22.90
2018-11-26T09:53:04.089Z,23.23
2018-11-26T09:56:09.024Z,23.77
2018-11-26T09:59:13.914Z,21.77
2018-11-26T10:02:18.782Z,24.33
2018-11-26T10:05:27.066Z,20.67
2018-11-26T10:08:31.911Z,21.27
2018-11-26T10:11:36.790Z,21.57
2018-11-26T10:14:41.713Z,21.43
2018-11-26T10:17:46.864Z,22.83
2018-11-26T10:20:51.707Z,22.33
2018-11-26T10:23:56.524Z,26.23
2018-11-26T10:27:01.354Z,21.33
2018-11-26T10:30:08.955Z,21.48
2018-11-26T10:33:14.799Z,19.50
2018-11-26T10:36:19.679Z,18.87
2018-11-26T10:39:24.529Z,19.15
2018-11-26T10:42:29.524Z,19.37
2018-11-26T10:45:34.545Z,19.03
2018-11-26T10:48:39.403Z,19.57
2018-11-26T10:51:44.418Z,21.48
2018-11-26T10:54:49.347Z,20.80
2018-11-26T10:57:54.237Z,20.30
2018-11-26T11:01:03.299Z,19.53
2018-11-26T11:04:08.461Z,19.53
2018-11-26T11:07:13.533Z,21.23
2018-11-26T11:10:29.618Z,21.33
2018-11-26T11:13:34.473Z,19.80
2018-11-26T11:16:39.405Z,21.07
2018-11-26T11:19:44.280Z,19.32
2018-11-26T11:22:49.158Z,20.70
2018-11-26T11:25:54.064Z,17.17
2018-11-26T11:28:58.917Z,16.07
2018-11-26T11:32:03.808Z,14.53
2018-11-26T11:35:10.223Z,14.27
2018-11-26T11:38:15.089Z,15.63
2018-11-26T11:41:19.987Z,16.03
2018-11-26T11:44:24.949Z,16.80
2018-11-26T11:47:29.942Z,14.63
2018-11-26T11:50:34.807Z,15.50
2018-11-26T11:53:39.647Z,14.43
2018-11-26T11:56:44.571Z,14.98
2018-11-26T11:59:49.404Z,13.93
2018-11-26T12:02:54.273Z,15.07
2018-11-26T12:05:59.148Z,14.00
2018-11-26T12:09:04.966Z,14.93
2018-11-26T12:12:09.893Z,14.80
2018-11-26T12:15:16.201Z,15.00
2018-11-26T12:18:21.107Z,15.77
2018-11-26T12:21:26.041Z,15.00
2018-11-26T12:24:30.950Z,15.10
2018-11-26T12:27:36.016Z,15.30
2018-11-26T12:30:45.382Z,15.97
2018-11-26T12:33:50.267Z,15.53
2018-11-26T12:36:57.809Z,15.00
2018-11-26T12:40:00.913Z,14.87
2018-11-26T12:43:06.759Z,14.90
2018-11-26T12:46:11.777Z,14.13
2018-11-26T12:49:16.686Z,13.60
2018-11-26T12:52:21.557Z,13.20
2018-11-26T12:55:27.048Z,12.23
2018-11-26T12:58:32.047Z,12.75
2018-11-26T13:01:36.894Z,12.50
2018-11-26T13:04:41.827Z,15.10
2018-11-26T13:07:46.723Z,14.50
2018-11-26T13:10:51.722Z,15.90
2018-11-26T13:13:56.563Z,16.23
2018-11-26T13:17:01.436Z,18.60
2018-11-26T13:20:11.434Z,19.47
2018-11-26T13:23:16.460Z,20.50
2018-11-26T13:26:21.379Z,22.20
2018-11-26T13:29:26.268Z,20.07
2018-11-26T13:32:31.217Z,22.10
2018-11-26T13:35:36.168Z,21.10
2018-11-26T13:38:41.038Z,23.00
2018-11-26T13:41:45.979Z,23.57
2018-11-26T13:44:50.838Z,22.40
2018-11-26T13:47:55.804Z,24.20
2018-11-26T13:51:00.689Z,22.20
2018-11-26T13:54:05.552Z,24.00
2018-11-26T13:57:10.462Z,21.96
2018-11-26T14:00:18.633Z,22.57
2018-11-26T14:03:23.550Z,23.30
2018-11-26T14:06:28.549Z,23.67
2018-11-26T14:09:33.473Z,24.40
2018-11-26T14:12:38.368Z,23.97
2018-11-26T14:15:43.244Z,21.53
2018-11-26T14:18:48.183Z,23.53
2018-11-26T14:21:53.015Z,23.17
2018-11-26T14:24:57.903Z,22.60
2018-11-26T14:28:02.827Z,23.30
2018-11-26T14:31:07.872Z,23.57
2018-11-26T14:34:12.909Z,23.22
2018-11-26T14:37:17.970Z,24.07
2018-11-26T14:40:48.139Z,23.97
2018-11-26T14:43:53.048Z,22.57
2018-11-26T14:46:57.905Z,22.10
2018-11-26T14:50:02.783Z,21.83
2018-11-26T14:53:08.744Z,21.73
2018-11-26T14:56:13.698Z,21.42
2018-11-26T14:59:18.589Z,22.03
2018-11-26T15:02:23.443Z,22.07
2018-11-26T15:05:28.350Z,22.13
2018-11-26T15:08:33.282Z,21.37
2018-11-26T15:11:38.284Z,20.90
2018-11-26T15:14:43.211Z,23.50
2018-11-26T15:17:48.215Z,22.40
2018-11-26T15:20:53.052Z,21.70
2018-11-26T15:23:57.907Z,21.30
2018-11-26T15:27:02.865Z,21.93
2018-11-26T15:30:16.902Z,22.00
2018-11-26T15:33:21.944Z,24.10
2018-11-26T15:36:26.774Z,22.22
2018-11-26T15:39:31.674Z,21.13
2018-11-26T15:42:36.518Z,21.87
2018-11-26T15:45:41.387Z,21.90
2018-11-26T15:48:46.514Z,21.07
2018-11-26T15:51:51.646Z,22.27
2018-11-26T15:54:56.647Z,23.30
2018-11-26T15:58:01.951Z,24.10
2018-11-26T16:01:07.392Z,23.50
2018-11-26T16:04:12.282Z,22.22
2018-11-26T16:07:17.108Z,23.52
2018-11-26T16:10:22.003Z,22.50
2018-11-26T16:13:26.937Z,22.20
2018-11-26T16:16:31.806Z,22.50
2018-11-26T16:19:36.776Z,21.90
2018-11-26T16:22:41.822Z,23.57
2018-11-26T16:25:48.022Z,21.70
2018-11-26T16:28:52.924Z,22.90
2018-11-26T16:31:57.833Z,21.77
2018-11-26T16:35:02.711Z,23.50
2018-11-26T16:38:08.446Z,23.37
2018-11-26T16:41:13.327Z,23.20
2018-11-26T16:44:18.244Z,22.83
2018-11-26T16:47:23.143Z,23.38
2018-11-26T16:50:29.282Z,23.90
2018-11-26T16:53:34.133Z,23.92
2018-11-26T16:56:39.032Z,23.57
2018-11-26T16:59:43.891Z,21.20
2018-11-26T17:02:49.848Z,24.60
2018-11-26T17:05:54.838Z,22.83
2018-11-26T17:08:59.732Z,23.57
2018-11-26T17:12:05.194Z,23.70
2018-11-26T17:15:18.047Z,23.30
2018-11-26T17:18:22.901Z,23.70
2018-11-26T17:21:27.821Z,22.23
2018-11-26T17:24:32.733Z,21.30
2018-11-26T17:27:37.673Z,21.97
2018-11-26T17:30:42.907Z,20.53
2018-11-26T17:33:47.895Z,22.10
2018-11-26T17:36:52.881Z,22.10
2018-11-26T17:39:57.898Z,22.13
2018-11-26T17:43:02.858Z,23.20
2018-11-26T17:46:07.842Z,21.00
2018-11-26T17:49:12.707Z,21.00
2018-11-26T17:52:17.595Z,22.67
2018-11-26T17:55:22.448Z,22.00
2018-11-26T17:58:30.632Z,23.93
2018-11-26T18:01:39.273Z,19.92
2018-11-26T18:04:44.548Z,21.00
2018-11-26T18:07:56.929Z,22.90
2018-11-26T18:11:01.893Z,23.30
2018-11-26T18:14:06.997Z,23.20
2018-11-26T18:17:11.841Z,22.47
2018-11-26T18:20:18.065Z,22.98
2018-11-26T18:23:23.053Z,20.37
2018-11-26T18:26:28.530Z,20.87
2018-11-26T18:29:33.432Z,21.77
2018-11-26T18:32:38.302Z,21.70
2018-11-26T18:35:44.148Z,20.10
2018-11-26T18:38:49.001Z,20.80
2018-11-26T18:41:53.903Z,19.60
2018-11-26T18:44:58.823Z,21.63
2018-11-26T18:48:03.705Z,19.67
2018-11-26T18:51:08.979Z,20.27
2018-11-26T18:54:14.028Z,21.63
2018-11-26T18:57:18.967Z,20.93
2018-11-26T19:00:34.474Z,20.77
2018-11-26T19:03:39.481Z,21.53
2018-11-26T19:06:44.622Z,19.97
2018-11-26T19:09:49.596Z,20.87
2018-11-26T19:13:16.930Z,19.50
2018-11-26T19:16:23.947Z,19.40
2018-11-26T19:19:29.052Z,19.93
2018-11-26T19:22:34.121Z,18.90
2018-11-26T19:25:39.053Z,19.30
2018-11-26T19:28:44.015Z,19.13
2018-11-26T19:31:49.202Z,19.67
2018-11-26T19:34:54.068Z,20.03
2018-11-26T19:37:58.957Z,18.25
2018-11-26T19:41:04.259Z,20.40
2018-11-26T19:44:09.147Z,20.40
2018-11-26T19:47:14.181Z,20.95
2018-11-26T19:50:20.142Z,20.87
2018-11-26T19:53:26.381Z,20.57
2018-11-26T19:56:31.101Z,19.37
2018-11-26T19:59:37.304Z,21.07
2018-11-26T20:02:41.807Z,20.57
2018-11-26T20:05:55.092Z,21.00
2018-11-26T20:09:01.314Z,19.60
2018-11-26T20:12:06.761Z,21.00
2018-11-26T20:15:14.126Z,21.02
2018-11-26T20:18:19.047Z,21.20
2018-11-26T20:21:23.954Z,19.50
2018-11-26T20:24:28.800Z,21.90
2018-11-26T20:27:33.711Z,21.00
2018-11-26T20:30:38.694Z,18.00
2018-11-26T20:33:43.589Z,16.90
2018-11-26T20:36:48.446Z,15.60
2018-11-26T20:39:53.311Z,14.87
2018-11-26T20:42:58.633Z,15.77
2018-11-26T20:46:04.564Z,14.67
2018-11-26T20:49:10.209Z,14.87
2018-11-26T20:52:15.074Z,17.67
2018-11-26T20:55:21.101Z,15.90
2018-11-26T20:58:26.015Z,16.03
2018-11-26T21:01:30.880Z,15.30
2018-11-26T21:04:35.746Z,15.47
2018-11-26T21:07:40.658Z,13.70
2018-11-26T21:10:45.646Z,15.07
2018-11-26T21:13:50.651Z,14.77
2018-11-26T21:16:55.483Z,13.67
2018-11-26T21:20:00.355Z,14.57
2018-11-26T21:23:07.984Z,14.35
2018-11-26T21:26:12.850Z,14.20
2018-11-26T21:29:17.766Z,15.40
2018-11-26T21:32:22.690Z,13.50
2018-11-26T21:35:27.614Z,14.70
2018-11-26T21:38:33.111Z,14.03
2018-11-26T21:41:38.004Z,16.13
2018-11-26T21:44:42.869Z,14.37
2018-11-26T21:47:47.845Z,13.90
2018-11-26T21:50:52.787Z,15.03
2018-11-26T21:53:57.616Z,16.30
2018-11-26T21:57:02.610Z,15.00
2018-11-26T22:00:13.479Z,14.37
2018-11-26T22:03:18.340Z,14.50
2018-11-26T22:06:23.264Z,15.20
2018-11-26T22:09:28.174Z,16.13
2018-11-26T22:12:33.111Z,15.50
2018-11-26T22:15:38.024Z,14.80
2018-11-26T22:18:42.909Z,13.53
2018-11-26T22:21:47.935Z,14.63
2018-11-26T22:24:52.770Z,14.50
2018-11-26T22:27:57.629Z,14.30
2018-11-26T22:31:03.149Z,13.73
2018-11-26T22:34:07.974Z,13.73
2018-11-26T22:37:12.852Z,13.27
2018-11-26T22:40:22.332Z,13.07
2018-11-26T22:43:27.385Z,13.60
2018-11-26T22:46:32.345Z,14.07
2018-11-26T22:49:37.485Z,14.90
2018-11-26T22:52:42.446Z,13.23
2018-11-26T22:55:47.332Z,13.90
2018-11-26T22:58:52.321Z,12.83
2018-11-26T23:01:57.134Z,13.50
2018-11-26T23:05:02.000Z,13.73
2018-11-26T23:08:07.929Z,13.60
2018-11-26T23:11:12.813Z,15.20
2018-11-26T23:14:17.688Z,13.90
2018-11-26T23:17:22.660Z,13.90
2018-11-26T23:20:27.741Z,14.33
2018-11-26T23:23:32.585Z,12.67
2018-11-26T23:26:37.653Z,13.68
2018-11-26T23:29:42.958Z,14.53
2018-11-26T23:32:49.524Z,15.53
2018-11-26T23:35:54.674Z,16.75
2018-11-26T23:38:59.645Z,17.70
2018-11-26T23:42:04.519Z,16.97
2018-11-26T23:45:13.525Z,17.67
2018-11-26T23:48:18.412Z,17.17
2018-11-26T23:51:23.293Z,17.73
2018-11-26T23:54:28.215Z,17.80
2018-11-26T23:57:33.336Z,16.90
